20 Jan 2019 03:21 UTC 2019020+03:21 UTC

Overview Datums Bench Marks Data Query Site Visit Daily QC Messages Attributes

170: National Park Service - Baffin Bay

27° 17' 49" N   97° 24' 17" W
NPSBB
United States National Park Service United States National Park Service

Station Information

National Park Service - Baffin Bay
National Park Service - Baffin Bay
more pictures
 
Station Name:National Park Service - Baffin Bay
DNR ID:170
Location:27° 17' 49" N, 97° 24' 17" W

Water Level Forecasts

Latest Observations

Series Metric English Marine Observed at
Water Temperature 15.3 °C 59.5 °F 59.5 °F Jan 19 19:30 CST
01h49m ago
Salinity 17.000 psu 17.000 psu 17.000 psu Jan 19 19:30 CST
01h49m ago
pH 8.28 pH 8.28 pH 8.28 pH Jan 19 19:30 CST
01h49m ago
Turbidity 17 ntu 17 ntu 17 ntu Jan 19 19:30 CST
01h49m ago
Dissolved Oxygen 7.49 mg/L 0.000468 lb/ft3 0.000468 lb/ft3 Jan 19 19:30 CST
01h49m ago

Maps

National Park Service - Baffin Bay
All Stations in Area
Entire Network
 

Recent Observations

Date/Time Water
Temp (°F)
Sal (psu) pH (pH) Turb (ntu) DO (lb/ft3)
Jan 19 19:00 CST 59.9 20.400 8.27 20 0.000461
Jan 19 18:00 CST 60.4 26.500 8.27 27 0.000450
Jan 19 17:00 CST 61.2 26.600 8.26 42 0.000451
Jan 19 16:00 CST 61.5 26.600 8.23 52 0.000449
Jan 19 15:00 CST 61.9 26.600 8.23 63 0.000448
Jan 19 14:00 CST 61.7 26.600 8.24 57 0.000444
Jan 19 13:00 CST 61.3 26.500 8.24 49 0.000446
Jan 19 12:00 CST 61.0 26.600 8.26 78 0.000448
Jan 19 11:00 CST 60.4 26.600 8.26 82 0.000446
Jan 19 10:00 CST 60.6 26.600 8.27 47 0.000438
Jan 19 09:00 CST 60.6 26.600 8.25 36 0.000420
Jan 19 08:00 CST 61.3 26.400 8.18 18 0.000404
Jan 19 07:00 CST 61.5 24.100 8.25 10 0.000408
Jan 19 06:00 CST 61.5 26.200 8.26 7 0.000416
Jan 19 05:00 CST 61.5 26.000 8.24 11 0.000408
Jan 19 04:00 CST 61.5 25.100 8.21 19 0.000394
Jan 19 03:00 CST 61.5 24.700 8.22 7 0.000398
Jan 19 02:00 CST 61.9 18.200 8.22 6 0.000413
Jan 19 01:00 CST 61.9 24.000 8.22 8 0.000408
Jan 19 00:00 CST 61.9 23.900 8.22 18 0.000416
Jan 18 23:00 CST 62.2 26.000 8.24 18 0.000406
Jan 18 22:00 CST 62.6 20.400 8.23 19 0.000417
Jan 18 21:00 CST 62.8 24.800 8.25 10 0.000417

Historical Data Availability